sensor_id;sensor_type;location;lat;lon;timestamp;pressure;altitude;pressure_sealevel;temperature;humidity
33163;BME280;29282;45.656;11.302;2022-08-11T00:00:47;98858.59;;;26.47;50.01
33163;BME280;29282;45.656;11.302;2022-08-11T00:03:14;98850.25;;;26.47;49.81
33163;BME280;29282;45.656;11.302;2022-08-11T00:05:49;98855.00;;;26.46;49.70
33163;BME280;29282;45.656;11.302;2022-08-11T00:10:55;98855.81;;;26.47;50.03
33163;BME280;29282;45.656;11.302;2022-08-11T00:13:22;98855.81;;;26.47;49.74
33163;BME280;29282;45.656;11.302;2022-08-11T00:15:55;98855.81;;;26.47;49.72
33163;BME280;29282;45.656;11.302;2022-08-11T00:18:21;98858.59;;;26.47;49.92
33163;BME280;29282;45.656;11.302;2022-08-11T00:20:47;98853.03;;;26.47;49.52
33163;BME280;29282;45.656;11.302;2022-08-11T00:23:17;98859.41;;;26.47;49.90
33163;BME280;29282;45.656;11.302;2022-08-11T00:25:48;98861.34;;;26.47;49.65
33163;BME280;29282;45.656;11.302;2022-08-11T00:28:32;98859.75;;;26.46;49.68
33163;BME280;29282;45.656;11.302;2022-08-11T00:31:01;98862.53;;;26.46;49.62
33163;BME280;29282;45.656;11.302;2022-08-11T00:33:42;98861.34;;;26.47;49.95
33163;BME280;29282;45.656;11.302;2022-08-11T00:36:09;98858.94;;;26.45;49.58
33163;BME280;29282;45.656;11.302;2022-08-11T00:38:39;98855.38;;;26.45;49.72
33163;BME280;29282;45.656;11.302;2022-08-11T00:41:32;98860.56;;;26.46;49.63
33163;BME280;29282;45.656;11.302;2022-08-11T00:49:33;98850.59;;;26.45;49.66
33163;BME280;29282;45.656;11.302;2022-08-11T00:58:08;98851.00;;;26.44;49.88
33163;BME280;29282;45.656;11.302;2022-08-11T01:09:48;98849.81;;;26.45;49.91
33163;BME280;29282;45.656;11.302;2022-08-11T01:17:49;98852.59;;;26.45;49.90
33163;BME280;29282;45.656;11.302;2022-08-11T01:28:47;98849.81;;;26.45;49.86
33163;BME280;29282;45.656;11.302;2022-08-11T01:47:46;98827.97;;;26.43;49.75
33163;BME280;29282;45.656;11.302;2022-08-11T01:50:25;98825.19;;;26.43;49.81
33163;BME280;29282;45.656;11.302;2022-08-11T01:53:04;98809.31;;;26.44;49.55
33163;BME280;29282;45.656;11.302;2022-08-11T01:55:42;98806.53;;;26.44;49.64
33163;BME280;29282;45.656;11.302;2022-08-11T02:01:12;98803.75;;;26.44;49.69
33163;BME280;29282;45.656;11.302;2022-08-11T02:03:52;98812.88;;;26.44;49.56
33163;BME280;29282;45.656;11.302;2022-08-11T02:12:54;98773.19;;;26.44;49.83
33163;BME280;29282;45.656;11.302;2022-08-11T02:15:37;98772.41;;;26.43;49.65
33163;BME280;29282;45.656;11.302;2022-08-11T02:18:35;98764.88;;;26.44;49.68
33163;BME280;29282;45.656;11.302;2022-08-11T02:21:35;98766.03;;;26.43;49.79
33163;BME280;29282;45.656;11.302;2022-08-11T02:24:27;98758.88;;;26.42;49.79
33163;BME280;29282;45.656;11.302;2022-08-11T02:27:21;98760.50;;;26.43;49.75
33163;BME280;29282;45.656;11.302;2022-08-11T02:30:02;98763.28;;;26.43;49.66
33163;BME280;29282;45.656;11.302;2022-08-11T02:33:08;98754.94;;;26.43;49.66
33163;BME280;29282;45.656;11.302;2022-08-11T02:36:02;98763.28;;;26.43;49.75
33163;BME280;29282;45.656;11.302;2022-08-11T02:38:48;98757.72;;;26.43;49.79
33163;BME280;29282;45.656;11.302;2022-08-11T02:46:35;98759.69;;;26.42;49.73
33163;BME280;29282;45.656;11.302;2022-08-11T02:49:25;98766.03;;;26.43;49.59
33163;BME280;29282;45.656;11.302;2022-08-11T03:00:19;98760.84;;;26.41;49.70
33163;BME280;29282;45.656;11.302;2022-08-11T03:03:00;98761.66;;;26.42;49.59
33163;BME280;29282;45.656;11.302;2022-08-11T03:11:14;98760.84;;;26.41;49.74
33163;BME280;29282;45.656;11.302;2022-08-11T03:16:55;98767.19;;;26.42;49.89
33163;BME280;29282;45.656;11.302;2022-08-11T03:34:26;98754.50;;;26.41;49.69
33163;BME280;29282;45.656;11.302;2022-08-11T03:40:41;98750.53;;;26.42;49.64
33163;BME280;29282;45.656;11.302;2022-08-11T03:43:53;98752.91;;;26.40;49.76
33163;BME280;29282;45.656;11.302;2022-08-11T03:54:50;98752.91;;;26.40;49.60
33163;BME280;29282;45.656;11.302;2022-08-11T03:58:46;98746.56;;;26.39;49.57
33163;BME280;29282;45.656;11.302;2022-08-11T04:07:08;98752.91;;;26.40;49.33
33163;BME280;29282;45.656;11.302;2022-08-11T04:26:27;98756.84;;;26.39;49.50
33163;BME280;29282;45.656;11.302;2022-08-11T04:34:58;98762.41;;;26.39;49.44
33163;BME280;29282;45.656;11.302;2022-08-11T04:56:01;98767.16;;;26.38;49.35
33163;BME280;29282;45.656;11.302;2022-08-11T05:14:57;98780.25;;;26.38;49.50
33163;BME280;29282;45.656;11.302;2022-08-11T05:17:53;98779.84;;;26.36;49.36
33163;BME280;29282;45.656;11.302;2022-08-11T05:20:49;98777.47;;;26.38;49.46
33163;BME280;29282;45.656;11.302;2022-08-11T05:23:42;98776.69;;;26.37;49.57
33163;BME280;29282;45.656;11.302;2022-08-11T05:26:28;98767.13;;;26.35;49.52
33163;BME280;29282;45.656;11.302;2022-08-11T05:29:26;98775.88;;;26.37;49.31
33163;BME280;29282;45.656;11.302;2022-08-11T05:32:15;98768.75;;;26.36;49.42
33163;BME280;29282;45.656;11.302;2022-08-11T05:35:02;98769.91;;;26.35;49.49
33163;BME280;29282;45.656;11.302;2022-08-11T05:40:20;98775.09;;;26.36;49.24
33163;BME280;29282;45.656;11.302;2022-08-11T05:43:11;98770.69;;;26.35;49.02
33163;BME280;29282;45.656;11.302;2022-08-11T05:46:01;98772.66;;;26.35;49.30
33163;BME280;29282;45.656;11.302;2022-08-11T05:48:45;98766.31;;;26.34;49.34
33163;BME280;29282;45.656;11.302;2022-08-11T05:51:38;98765.13;;;26.35;49.37
33163;BME280;29282;45.656;11.302;2022-08-11T05:54:25;98756.00;;;26.35;49.37
33163;BME280;29282;45.656;11.302;2022-08-11T05:57:17;98764.34;;;26.35;49.26
33163;BME280;29282;45.656;11.302;2022-08-11T05:59:43;98761.94;;;26.33;49.36
33163;BME280;29282;45.656;11.302;2022-08-11T06:02:10;98761.56;;;26.35;49.30
33163;BME280;29282;45.656;11.302;2022-08-11T06:04:38;98766.31;;;26.34;49.44
33163;BME280;29282;45.656;11.302;2022-08-11T06:07:06;98767.13;;;26.35;49.44
33163;BME280;29282;45.656;11.302;2022-08-11T06:09:38;98757.97;;;26.34;49.25
33163;BME280;29282;45.656;11.302;2022-08-11T06:12:07;98762.75;;;26.34;49.25
33163;BME280;29282;45.656;11.302;2022-08-11T06:14:34;98766.31;;;26.34;49.28
33163;BME280;29282;45.656;11.302;2022-08-11T06:17:05;98771.06;;;26.34;49.28
33163;BME280;29282;45.656;11.302;2022-08-11T06:19:40;98771.88;;;26.34;49.20
33163;BME280;29282;45.656;11.302;2022-08-11T06:22:11;98773.84;;;26.34;49.25
33163;BME280;29282;45.656;11.302;2022-08-11T06:24:40;98764.72;;;26.33;49.20
33163;BME280;29282;45.656;11.302;2022-08-11T06:27:07;98768.31;;;26.34;49.44
33163;BME280;29282;45.656;11.302;2022-08-11T06:29:35;98759.97;;;26.34;49.20
33163;BME280;29282;45.656;11.302;2022-08-11T06:32:05;98757.97;;;26.34;49.10
33163;BME280;29282;45.656;11.302;2022-08-11T06:34:39;98757.19;;;26.34;49.19
33163;BME280;29282;45.656;11.302;2022-08-11T06:40:33;98757.19;;;26.34;49.32
33163;BME280;29282;45.656;11.302;2022-08-11T06:43:10;98752.44;;;26.34;49.35
33163;BME280;29282;45.656;11.302;2022-08-11T06:48:17;98753.22;;;26.35;49.21
33163;BME280;29282;45.656;11.302;2022-08-11T06:50:51;98748.47;;;26.35;49.35
33163;BME280;29282;45.656;11.302;2022-08-11T06:53:49;98750.44;;;26.35;48.99
33163;BME280;29282;45.656;11.302;2022-08-11T06:56:23;98744.53;;;26.36;49.09
33163;BME280;29282;45.656;11.302;2022-08-11T06:59:09;98752.88;;;26.36;48.95
33163;BME280;29282;45.656;11.302;2022-08-11T07:01:56;98747.31;;;26.36;49.02
33163;BME280;29282;45.656;11.302;2022-08-11T07:04:50;98746.50;;;26.36;49.22
33163;BME280;29282;45.656;11.302;2022-08-11T07:13:44;98744.88;;;26.35;48.99
33163;BME280;29282;45.656;11.302;2022-08-11T07:16:30;98750.09;;;26.36;49.24
33163;BME280;29282;45.656;11.302;2022-08-11T07:19:04;98740.56;;;26.37;49.41
33163;BME280;29282;45.656;11.302;2022-08-11T07:21:49;98746.50;;;26.36;49.15
33163;BME280;29282;45.656;11.302;2022-08-11T07:24:40;98744.88;;;26.35;49.25
33163;BME280;29282;45.656;11.302;2022-08-11T07:27:30;98746.50;;;26.36;49.15
33163;BME280;29282;45.656;11.302;2022-08-11T07:30:17;98742.13;;;26.35;49.27
33163;BME280;29282;45.656;11.302;2022-08-11T07:32:50;98741.75;;;26.36;49.13
33163;BME280;29282;45.656;11.302;2022-08-11T07:35:20;98744.53;;;26.36;49.10
33163;BME280;29282;45.656;11.302;2022-08-11T07:37:49;98744.09;;;26.34;48.98
33163;BME280;29282;45.656;11.302;2022-08-11T07:40:21;98743.31;;;26.34;49.22
33163;BME280;29282;45.656;11.302;2022-08-11T07:42:48;98741.31;;;26.34;49.04
33163;BME280;29282;45.656;11.302;2022-08-11T07:45:15;98742.13;;;26.35;49.34
33163;BME280;29282;45.656;11.302;2022-08-11T07:47:59;98742.50;;;26.33;49.26
33163;BME280;29282;45.656;11.302;2022-08-11T07:50:44;98743.31;;;26.34;49.08
33163;BME280;29282;45.656;11.302;2022-08-11T07:53:30;98740.53;;;26.34;49.21
33163;BME280;29282;45.656;11.302;2022-08-11T07:55:59;98737.75;;;26.34;49.33
33163;BME280;29282;45.656;11.302;2022-08-11T07:58:26;98748.06;;;26.33;49.28
33163;BME280;29282;45.656;11.302;2022-08-11T08:01:18;98742.50;;;26.33;49.26
33163;BME280;29282;45.656;11.302;2022-08-11T08:04:04;98741.31;;;26.34;49.25
33163;BME280;29282;45.656;11.302;2022-08-11T08:06:49;98747.66;;;26.35;49.20
33163;BME280;29282;45.656;11.302;2022-08-11T08:09:34;98734.97;;;26.34;49.20
33163;BME280;29282;45.656;11.302;2022-08-11T08:12:23;98733.78;;;26.35;49.14
33163;BME280;29282;45.656;11.302;2022-08-11T08:15:13;98737.75;;;26.34;49.28
33163;BME280;29282;45.656;11.302;2022-08-11T08:17:59;98740.97;;;26.36;49.15
33163;BME280;29282;45.656;11.302;2022-08-11T08:23:00;98734.97;;;26.34;49.16
33163;BME280;29282;45.656;11.302;2022-08-11T08:25:28;98732.19;;;26.34;49.37
33163;BME280;29282;45.656;11.302;2022-08-11T08:27:56;98742.13;;;26.35;49.10
33163;BME280;29282;45.656;11.302;2022-08-11T08:30:23;98740.97;;;26.36;49.20
33163;BME280;29282;45.656;11.302;2022-08-11T08:33:11;98738.97;;;26.36;49.35
33163;BME280;29282;45.656;11.302;2022-08-11T08:35:37;98742.13;;;26.35;49.31
33163;BME280;29282;45.656;11.302;2022-08-11T08:38:03;98734.56;;;26.35;49.30
33163;BME280;29282;45.656;11.302;2022-08-11T08:40:29;98737.78;;;26.37;49.15
33163;BME280;29282;45.656;11.302;2022-08-11T08:42:58;98742.53;;;26.37;49.33
33163;BME280;29282;45.656;11.302;2022-08-11T08:45:28;98732.63;;;26.36;49.36
33163;BME280;29282;45.656;11.302;2022-08-11T08:50:26;98733.41;;;26.36;49.35
33163;BME280;29282;45.656;11.302;2022-08-11T08:53:13;98731.78;;;26.35;49.37
33163;BME280;29282;45.656;11.302;2022-08-11T08:55:44;98723.47;;;26.35;49.11
33163;BME280;29282;45.656;11.302;2022-08-11T08:58:11;98722.66;;;26.35;49.24
33163;BME280;29282;45.656;11.302;2022-08-11T09:00:44;98725.88;;;26.37;49.24
33163;BME280;29282;45.656;11.302;2022-08-11T09:03:11;98723.47;;;26.35;49.26
33163;BME280;29282;45.656;11.302;2022-08-11T09:05:38;98720.31;;;26.37;49.24
33163;BME280;29282;45.656;11.302;2022-08-11T09:08:05;98713.19;;;26.36;49.07
33163;BME280;29282;45.656;11.302;2022-08-11T09:10:30;98719.53;;;26.36;49.32
33163;BME280;29282;45.656;11.302;2022-08-11T09:12:58;98715.13;;;26.35;49.16
33163;BME280;29282;45.656;11.302;2022-08-11T09:15:25;98714.75;;;26.37;49.37
33163;BME280;29282;45.656;11.302;2022-08-11T09:17:56;98712.00;;;26.37;49.10
33163;BME280;29282;45.656;11.302;2022-08-11T09:20:29;98703.66;;;26.37;49.10
33163;BME280;29282;45.656;11.302;2022-08-11T09:23:01;98702.84;;;26.36;49.32
33163;BME280;29282;45.656;11.302;2022-08-11T09:25:46;98705.25;;;26.38;49.06
33163;BME280;29282;45.656;11.302;2022-08-11T09:28:31;98705.25;;;26.38;49.36
33163;BME280;29282;45.656;11.302;2022-08-11T09:30:58;98699.69;;;26.38;49.25
33163;BME280;29282;45.656;11.302;2022-08-11T09:33:29;98703.66;;;26.37;49.18
33163;BME280;29282;45.656;11.302;2022-08-11T09:35:56;98686.19;;;26.36;49.11
33163;BME280;29282;45.656;11.302;2022-08-11T09:38:23;98699.69;;;26.38;49.38
33163;BME280;29282;45.656;11.302;2022-08-11T09:41:09;98698.91;;;26.37;49.33
33163;BME280;29282;45.656;11.302;2022-08-11T09:43:41;98692.53;;;26.37;49.12
33163;BME280;29282;45.656;11.302;2022-08-11T09:46:27;98693.34;;;26.37;48.96
33163;BME280;29282;45.656;11.302;2022-08-11T09:48:56;98687.00;;;26.37;49.38
33163;BME280;29282;45.656;11.302;2022-08-11T09:51:24;98691.34;;;26.38;49.29
33163;BME280;29282;45.656;11.302;2022-08-11T09:53:50;98678.25;;;26.38;48.91
33163;BME280;29282;45.656;11.302;2022-08-11T09:56:21;98682.22;;;26.37;49.32
33163;BME280;29282;45.656;11.302;2022-08-11T09:59:07;98673.91;;;26.37;48.87
33163;BME280;29282;45.656;11.302;2022-08-11T10:01:43;98672.69;;;26.38;49.03
33163;BME280;29282;45.656;11.302;2022-08-11T10:04:21;98671.91;;;26.38;49.26
33163;BME280;29282;45.656;11.302;2022-08-11T10:06:52;98662.38;;;26.39;49.29
33163;BME280;29282;45.656;11.302;2022-08-11T10:12:19;98661.59;;;26.38;49.16
33163;BME280;29282;45.656;11.302;2022-08-11T10:14:47;98659.59;;;26.39;49.15
33163;BME280;29282;45.656;11.302;2022-08-11T10:17:35;98657.22;;;26.37;49.13
33163;BME280;29282;45.656;11.302;2022-08-11T10:20:23;98652.09;;;26.39;49.03
33163;BME280;29282;45.656;11.302;2022-08-11T10:22:49;98650.47;;;26.38;49.17
33163;BME280;29282;45.656;11.302;2022-08-11T10:25:35;98647.69;;;26.38;49.05
33163;BME280;29282;45.656;11.302;2022-08-11T10:28:19;98645.72;;;26.39;49.24
33163;BME280;29282;45.656;11.302;2022-08-11T10:30:46;98642.94;;;26.39;49.34
33163;BME280;29282;45.656;11.302;2022-08-11T10:33:30;98637.38;;;26.39;48.87
33163;BME280;29282;45.656;11.302;2022-08-11T10:36:17;98634.59;;;26.39;49.25
33163;BME280;29282;45.656;11.302;2022-08-11T10:38:45;98630.25;;;26.38;49.27
33163;BME280;29282;45.656;11.302;2022-08-11T10:41:15;98629.06;;;26.39;49.14
33163;BME280;29282;45.656;11.302;2022-08-11T10:43:59;98621.53;;;26.39;49.03
33163;BME280;29282;45.656;11.302;2022-08-11T10:46:26;98624.31;;;26.39;49.14
33163;BME280;29282;45.656;11.302;2022-08-11T10:49:11;98615.97;;;26.39;48.92
33163;BME280;29282;45.656;11.302;2022-08-11T10:51:36;98619.91;;;26.38;49.23
33163;BME280;29282;45.656;11.302;2022-08-11T10:54:21;98606.81;;;26.39;49.25
33163;BME280;29282;45.656;11.302;2022-08-11T10:57:06;98597.34;;;26.40;49.03
33163;BME280;29282;45.656;11.302;2022-08-11T10:59:51;98594.56;;;26.40;49.07
33163;BME280;29282;45.656;11.302;2022-08-11T11:02:20;98598.50;;;26.39;48.93
33163;BME280;29282;45.656;11.302;2022-08-11T11:05:08;98593.38;;;26.41;49.04
33163;BME280;29282;45.656;11.302;2022-08-11T11:08:00;98591.78;;;26.40;49.07
33163;BME280;29282;45.656;11.302;2022-08-11T11:10:53;98595.72;;;26.39;49.07
33163;BME280;29282;45.656;11.302;2022-08-11T11:13:20;98595.72;;;26.39;49.16
33163;BME280;29282;45.656;11.302;2022-08-11T11:16:05;98590.16;;;26.39;49.30
33163;BME280;29282;45.656;11.302;2022-08-11T11:18:49;98590.59;;;26.41;49.26
33163;BME280;29282;45.656;11.302;2022-08-11T11:21:18;98584.22;;;26.40;49.21
33163;BME280;29282;45.656;11.302;2022-08-11T11:37:02;98575.09;;;26.40;49.29
33163;BME280;29282;45.656;11.302;2022-08-11T11:39:31;98571.94;;;26.41;48.93
33163;BME280;29282;45.656;11.302;2022-08-11T11:42:02;98564.78;;;26.40;48.96
33163;BME280;29282;45.656;11.302;2022-08-11T11:44:28;98571.13;;;26.41;49.11
33163;BME280;29282;45.656;11.302;2022-08-11T11:46:55;98565.59;;;26.41;49.12
33163;BME280;29282;45.656;11.302;2022-08-11T11:49:24;98563.59;;;26.41;48.94
33163;BME280;29282;45.656;11.302;2022-08-11T11:51:51;98563.59;;;26.41;48.74
33163;BME280;29282;45.656;11.302;2022-08-11T11:54:23;98560.81;;;26.41;48.98
33163;BME280;29282;45.656;11.302;2022-08-11T11:56:51;98562.00;;;26.40;48.97
33163;BME280;29282;45.656;11.302;2022-08-11T11:59:19;98564.41;;;26.42;48.78
33163;BME280;29282;45.656;11.302;2022-08-11T12:02:03;98562.81;;;26.41;48.87
33163;BME280;29282;45.656;11.302;2022-08-11T12:04:29;98557.25;;;26.41;49.04
33163;BME280;29282;45.656;11.302;2022-08-11T12:06:55;98560.03;;;26.41;49.10
33163;BME280;29282;45.656;11.302;2022-08-11T12:09:42;98556.06;;;26.42;48.90
33163;BME280;29282;45.656;11.302;2022-08-11T12:12:08;98544.16;;;26.41;48.88
33163;BME280;29282;45.656;11.302;2022-08-11T12:14:53;98550.50;;;26.42;48.99
33163;BME280;29282;45.656;11.302;2022-08-11T12:17:20;98544.16;;;26.41;48.81
33163;BME280;29282;45.656;11.302;2022-08-11T12:19:46;98533.84;;;26.42;49.08
33163;BME280;29282;45.656;11.302;2022-08-11T12:22:14;98534.66;;;26.42;49.15
33163;BME280;29282;45.656;11.302;2022-08-11T12:24:59;98535.44;;;26.43;49.03
33163;BME280;29282;45.656;11.302;2022-08-11T12:27:44;98528.28;;;26.42;49.14
33163;BME280;29282;45.656;11.302;2022-08-11T12:30:10;98521.56;;;26.43;48.76
33163;BME280;29282;45.656;11.302;2022-08-11T12:32:36;98520.78;;;26.42;48.93
33163;BME280;29282;45.656;11.302;2022-08-11T12:35:04;98518.78;;;26.43;49.01
33163;BME280;29282;45.656;11.302;2022-08-11T12:37:42;98515.22;;;26.42;48.90
33163;BME280;29282;45.656;11.302;2022-08-11T12:40:11;98501.31;;;26.42;48.73
33163;BME280;29282;45.656;11.302;2022-08-11T12:42:58;98505.69;;;26.43;49.02
33163;BME280;29282;45.656;11.302;2022-08-11T12:45:44;98504.91;;;26.43;48.75
33163;BME280;29282;45.656;11.302;2022-08-11T12:48:16;98501.31;;;26.42;48.76
33163;BME280;29282;45.656;11.302;2022-08-11T12:51:04;98505.69;;;26.43;48.95
33163;BME280;29282;45.656;11.302;2022-08-11T12:53:56;98494.94;;;26.42;49.06
33163;BME280;29282;45.656;11.302;2022-08-11T12:56:23;98503.28;;;26.42;48.95
33163;BME280;29282;45.656;11.302;2022-08-11T12:59:08;98502.13;;;26.43;48.96
33163;BME280;29282;45.656;11.302;2022-08-11T13:01:53;98501.31;;;26.42;49.06
33163;BME280;29282;45.656;11.302;2022-08-11T13:04:40;98496.56;;;26.43;48.93
33163;BME280;29282;45.656;11.302;2022-08-11T13:07:18;98488.22;;;26.43;48.71
33163;BME280;29282;45.656;11.302;2022-08-11T13:09:44;98491.00;;;26.43;48.87
33163;BME280;29282;45.656;11.302;2022-08-11T13:12:11;98482.66;;;26.43;48.87
33163;BME280;29282;45.656;11.302;2022-08-11T13:14:56;98480.69;;;26.43;48.95
33163;BME280;29282;45.656;11.302;2022-08-11T13:17:22;98483.47;;;26.43;48.90
33163;BME280;29282;45.656;11.302;2022-08-11T13:19:49;98466.00;;;26.43;48.79
33163;BME280;29282;45.656;11.302;2022-08-11T13:22:21;98466.00;;;26.43;48.72
33163;BME280;29282;45.656;11.302;2022-08-11T13:24:49;98461.22;;;26.43;48.73
33163;BME280;29282;45.656;11.302;2022-08-11T13:27:17;98452.09;;;26.43;48.71
33163;BME280;29282;45.656;11.302;2022-08-11T13:29:44;98458.47;;;26.43;48.82
33163;BME280;29282;45.656;11.302;2022-08-11T13:32:12;98465.59;;;26.44;48.84
33163;BME280;29282;45.656;11.302;2022-08-11T13:34:39;98454.88;;;26.43;49.01
33163;BME280;29282;45.656;11.302;2022-08-11T13:37:08;98448.53;;;26.42;48.86
33163;BME280;29282;45.656;11.302;2022-08-11T13:39:35;98452.09;;;26.43;49.00
33163;BME280;29282;45.656;11.302;2022-08-11T13:42:02;98457.25;;;26.44;48.69
33163;BME280;29282;45.656;11.302;2022-08-11T13:44:32;98457.25;;;26.44;48.87
33163;BME280;29282;45.656;11.302;2022-08-11T13:47:02;98459.25;;;26.44;48.90
33163;BME280;29282;45.656;11.302;2022-08-11T13:49:35;98455.28;;;26.45;48.70
33163;BME280;29282;45.656;11.302;2022-08-11T13:52:02;98446.94;;;26.45;48.64
33163;BME280;29282;45.656;11.302;2022-08-11T13:54:34;98435.84;;;26.45;48.80
33163;BME280;29282;45.656;11.302;2022-08-11T13:57:04;98435.03;;;26.44;48.99
33163;BME280;29282;45.656;11.302;2022-08-11T13:59:30;98437.44;;;26.46;48.81
33163;BME280;29282;45.656;11.302;2022-08-11T14:01:58;98436.63;;;26.45;49.02
33163;BME280;29282;45.656;11.302;2022-08-11T14:07:07;98433.84;;;26.45;48.89
33163;BME280;29282;45.656;11.302;2022-08-11T14:09:37;98429.47;;;26.44;48.93
33163;BME280;29282;45.656;11.302;2022-08-11T14:12:08;98429.13;;;26.46;48.74
33163;BME280;29282;45.656;11.302;2022-08-11T14:17:35;98426.69;;;26.44;48.85
33163;BME280;29282;45.656;11.302;2022-08-11T14:20:06;98425.50;;;26.45;48.75
33163;BME280;29282;45.656;11.302;2022-08-11T14:22:35;98433.47;;;26.47;48.64
33163;BME280;29282;45.656;11.302;2022-08-11T14:25:04;98430.69;;;26.47;48.63
33163;BME280;29282;45.656;11.302;2022-08-11T14:27:31;98424.34;;;26.46;48.72
33163;BME280;29282;45.656;11.302;2022-08-11T14:29:57;98420.78;;;26.46;48.90
33163;BME280;29282;45.656;11.302;2022-08-11T14:32:24;98415.22;;;26.46;48.97
33163;BME280;29282;45.656;11.302;2022-08-11T14:34:51;98420.78;;;26.46;48.73
33163;BME280;29282;45.656;11.302;2022-08-11T14:37:21;98416.81;;;26.47;48.84
33163;BME280;29282;45.656;11.302;2022-08-11T14:39:52;98411.25;;;26.47;48.92
33163;BME280;29282;45.656;11.302;2022-08-11T14:42:19;98408.47;;;26.47;48.79
33163;BME280;29282;45.656;11.302;2022-08-11T14:45:07;98404.09;;;26.46;48.90
33163;BME280;29282;45.656;11.302;2022-08-11T14:47:53;98403.75;;;26.47;48.86
33163;BME280;29282;45.656;11.302;2022-08-11T14:50:24;98404.91;;;26.46;48.83
33163;BME280;29282;45.656;11.302;2022-08-11T14:52:54;98400.97;;;26.47;48.90
33163;BME280;29282;45.656;11.302;2022-08-11T14:55:22;98400.13;;;26.47;48.69
33163;BME280;29282;45.656;11.302;2022-08-11T14:58:08;98402.91;;;26.47;48.82
33163;BME280;29282;45.656;11.302;2022-08-11T15:00:35;98392.63;;;26.47;48.77
33163;BME280;29282;45.656;11.302;2022-08-11T15:03:03;98394.59;;;26.47;48.81
33163;BME280;29282;45.656;11.302;2022-08-11T15:05:38;98395.03;;;26.49;48.87
33163;BME280;29282;45.656;11.302;2022-08-11T15:08:08;98387.06;;;26.47;48.99
33163;BME280;29282;45.656;11.302;2022-08-11T15:10:34;98387.06;;;26.47;48.72
33163;BME280;29282;45.656;11.302;2022-08-11T15:13:00;98382.31;;;26.48;48.94
33163;BME280;29282;45.656;11.302;2022-08-11T15:15:27;98387.88;;;26.48;49.08
33163;BME280;29282;45.656;11.302;2022-08-11T15:18:13;98379.53;;;26.48;48.97
33163;BME280;29282;45.656;11.302;2022-08-11T15:20:45;98370.81;;;26.50;48.94
33163;BME280;29282;45.656;11.302;2022-08-11T15:23:30;98372.81;;;26.49;48.83
33163;BME280;29282;45.656;11.302;2022-08-11T15:29:22;98376.75;;;26.48;48.95
33163;BME280;29282;45.656;11.302;2022-08-11T15:32:08;98378.38;;;26.49;48.95
33163;BME280;29282;45.656;11.302;2022-08-11T15:34:50;98375.59;;;26.49;48.92
33163;BME280;29282;45.656;11.302;2022-08-11T15:37:36;98376.75;;;26.48;48.63
33163;BME280;29282;45.656;11.302;2022-08-11T15:40:12;98367.25;;;26.49;48.67
33163;BME280;29282;45.656;11.302;2022-08-11T15:43:17;98369.22;;;26.48;48.85
33163;BME280;29282;45.656;11.302;2022-08-11T15:46:14;98363.66;;;26.48;48.77
33163;BME280;29282;45.656;11.302;2022-08-11T15:48:45;98367.63;;;26.47;48.69
33163;BME280;29282;45.656;11.302;2022-08-11T15:51:18;98360.09;;;26.48;48.66
33163;BME280;29282;45.656;11.302;2022-08-11T15:53:51;98362.84;;;26.48;48.90
33163;BME280;29282;45.656;11.302;2022-08-11T15:56:20;98358.09;;;26.48;48.93
33163;BME280;29282;45.656;11.302;2022-08-11T15:58:49;98361.69;;;26.49;48.77
33163;BME280;29282;45.656;11.302;2022-08-11T16:01:36;98364.47;;;26.49;48.90
33163;BME280;29282;45.656;11.302;2022-08-11T16:04:24;98360.88;;;26.48;48.65
33163;BME280;29282;45.656;11.302;2022-08-11T16:12:10;98361.69;;;26.49;48.80
33163;BME280;29282;45.656;11.302;2022-08-11T16:14:41;98353.38;;;26.49;48.81
33163;BME280;29282;45.656;11.302;2022-08-11T16:17:30;98348.97;;;26.48;48.69
33163;BME280;29282;45.656;11.302;2022-08-11T16:19:57;98342.25;;;26.49;48.70
33163;BME280;29282;45.656;11.302;2022-08-11T16:22:27;98343.03;;;26.50;48.75
33163;BME280;29282;45.656;11.302;2022-08-11T16:25:07;98335.50;;;26.50;48.86
33163;BME280;29282;45.656;11.302;2022-08-11T16:27:46;98341.44;;;26.48;48.53
33163;BME280;29282;45.656;11.302;2022-08-11T16:30:12;98339.47;;;26.49;48.69
33163;BME280;29282;45.656;11.302;2022-08-11T16:32:42;98342.25;;;26.49;49.03
33163;BME280;29282;45.656;11.302;2022-08-11T16:35:11;98345.03;;;26.49;48.93
33163;BME280;29282;45.656;11.302;2022-08-11T16:37:56;98345.03;;;26.49;48.85
33163;BME280;29282;45.656;11.302;2022-08-11T16:40:43;98345.81;;;26.50;48.61
33163;BME280;29282;45.656;11.302;2022-08-11T16:43:14;98343.03;;;26.50;48.67
33163;BME280;29282;45.656;11.302;2022-08-11T16:46:00;98340.25;;;26.50;48.76
33163;BME280;29282;45.656;11.302;2022-08-11T16:48:45;98342.25;;;26.49;48.85
33163;BME280;29282;45.656;11.302;2022-08-11T16:51:12;98341.44;;;26.48;48.58
33163;BME280;29282;45.656;11.302;2022-08-11T16:53:39;98346.63;;;26.50;48.84
33163;BME280;29282;45.656;11.302;2022-08-11T16:56:10;98349.38;;;26.50;48.73
33163;BME280;29282;45.656;11.302;2022-08-11T16:58:40;98350.97;;;26.51;48.60
33163;BME280;29282;45.656;11.302;2022-08-11T17:01:35;98353.75;;;26.51;48.79
33163;BME280;29282;45.656;11.302;2022-08-11T17:04:27;98345.41;;;26.51;48.89
33163;BME280;29282;45.656;11.302;2022-08-11T17:07:12;98343.84;;;26.50;48.68
33163;BME280;29282;45.656;11.302;2022-08-11T17:09:59;98346.63;;;26.50;48.68
33163;BME280;29282;45.656;11.302;2022-08-11T17:12:48;98343.84;;;26.50;48.93
33163;BME280;29282;45.656;11.302;2022-08-11T17:15:43;98348.19;;;26.51;48.76
33163;BME280;29282;45.656;11.302;2022-08-11T17:18:29;98347.41;;;26.51;48.86
33163;BME280;29282;45.656;11.302;2022-08-11T17:21:06;98351.75;;;26.52;48.69
33163;BME280;29282;45.656;11.302;2022-08-11T17:23:34;98350.19;;;26.51;48.93